sensor_id;sensor_type;location;lat;lon;timestamp;P1;durP1;ratioP1;P2;durP2;ratioP2
60432;SDS011;46286;48.098;11.590;2023-04-03T00:00:10;16.83;;;8.40;;
60432;SDS011;46286;48.098;11.590;2023-04-03T00:02:56;15.55;;;8.15;;
60432;SDS011;46286;48.098;11.590;2023-04-03T00:05:22;13.98;;;7.72;;
60432;SDS011;46286;48.098;11.590;2023-04-03T00:07:47;13.13;;;7.55;;
60432;SDS011;46286;48.098;11.590;2023-04-03T00:10:15;13.05;;;7.63;;
60432;SDS011;46286;48.098;11.590;2023-04-03T00:12:41;12.98;;;7.75;;
60432;SDS011;46286;48.098;11.590;2023-04-03T00:15:06;14.38;;;7.20;;
60432;SDS011;46286;48.098;11.590;2023-04-03T00:17:32;13.75;;;7.60;;
60432;SDS011;46286;48.098;11.590;2023-04-03T00:19:58;13.43;;;8.05;;
60432;SDS011;46286;48.098;11.590;2023-04-03T00:22:24;12.75;;;7.90;;
60432;SDS011;46286;48.098;11.590;2023-04-03T00:24:51;14.32;;;7.93;;
60432;SDS011;46286;48.098;11.590;2023-04-03T00:27:17;11.98;;;7.57;;
60432;SDS011;46286;48.098;11.590;2023-04-03T00:29:43;14.00;;;8.35;;
60432;SDS011;46286;48.098;11.590;2023-04-03T00:32:08;13.98;;;8.20;;
60432;SDS011;46286;48.098;11.590;2023-04-03T00:34:34;13.75;;;8.30;;
60432;SDS011;46286;48.098;11.590;2023-04-03T00:36:59;13.50;;;7.55;;
60432;SDS011;46286;48.098;11.590;2023-04-03T00:39:25;14.25;;;7.53;;
60432;SDS011;46286;48.098;11.590;2023-04-03T00:41:50;16.50;;;8.07;;
60432;SDS011;46286;48.098;11.590;2023-04-03T00:44:22;16.50;;;8.40;;
60432;SDS011;46286;48.098;11.590;2023-04-03T00:46:53;16.27;;;7.95;;
60432;SDS011;46286;48.098;11.590;2023-04-03T00:49:19;15.77;;;8.63;;
60432;SDS011;46286;48.098;11.590;2023-04-03T00:51:45;15.15;;;8.25;;
60432;SDS011;46286;48.098;11.590;2023-04-03T00:54:11;13.68;;;8.35;;
60432;SDS011;46286;48.098;11.590;2023-04-03T00:56:37;14.32;;;8.02;;
60432;SDS011;46286;48.098;11.590;2023-04-03T00:59:06;15.23;;;8.20;;
60432;SDS011;46286;48.098;11.590;2023-04-03T01:01:35;11.05;;;7.50;;
60432;SDS011;46286;48.098;11.590;2023-04-03T01:04:03;16.02;;;7.57;;
60432;SDS011;46286;48.098;11.590;2023-04-03T01:06:34;15.50;;;7.85;;
60432;SDS011;46286;48.098;11.590;2023-04-03T01:09:01;13.52;;;8.00;;
60432;SDS011;46286;48.098;11.590;2023-04-03T01:11:27;15.50;;;7.82;;
60432;SDS011;46286;48.098;11.590;2023-04-03T01:13:53;10.38;;;6.65;;
60432;SDS011;46286;48.098;11.590;2023-04-03T01:16:19;12.88;;;7.95;;
60432;SDS011;46286;48.098;11.590;2023-04-03T01:18:44;14.23;;;8.07;;
60432;SDS011;46286;48.098;11.590;2023-04-03T01:21:15;13.00;;;8.05;;
60432;SDS011;46286;48.098;11.590;2023-04-03T01:24:35;14.93;;;7.70;;
60432;SDS011;46286;48.098;11.590;2023-04-03T01:26:52;13.43;;;7.63;;
60432;SDS011;46286;48.098;11.590;2023-04-03T01:29:18;13.95;;;7.38;;
60432;SDS011;46286;48.098;11.590;2023-04-03T01:31:48;13.00;;;7.60;;
60432;SDS011;46286;48.098;11.590;2023-04-03T01:34:25;14.70;;;7.70;;
60432;SDS011;46286;48.098;11.590;2023-04-03T01:36:52;12.88;;;7.53;;
60432;SDS011;46286;48.098;11.590;2023-04-03T01:39:18;14.05;;;7.95;;
60432;SDS011;46286;48.098;11.590;2023-04-03T01:41:44;12.20;;;7.95;;
60432;SDS011;46286;48.098;11.590;2023-04-03T01:44:10;15.10;;;7.75;;
60432;SDS011;46286;48.098;11.590;2023-04-03T01:46:36;15.70;;;8.60;;
60432;SDS011;46286;48.098;11.590;2023-04-03T01:49:03;14.85;;;7.72;;
60432;SDS011;46286;48.098;11.590;2023-04-03T01:51:29;17.17;;;9.20;;
60432;SDS011;46286;48.098;11.590;2023-04-03T01:53:55;16.15;;;8.15;;
60432;SDS011;46286;48.098;11.590;2023-04-03T01:56:20;17.88;;;8.90;;
60432;SDS011;46286;48.098;11.590;2023-04-03T01:58:46;16.75;;;8.73;;
60432;SDS011;46286;48.098;11.590;2023-04-03T02:01:11;18.25;;;8.73;;
60432;SDS011;46286;48.098;11.590;2023-04-03T02:03:37;14.63;;;8.90;;
60432;SDS011;46286;48.098;11.590;2023-04-03T02:06:03;18.23;;;9.55;;
60432;SDS011;46286;48.098;11.590;2023-04-03T02:08:28;15.77;;;8.48;;
60432;SDS011;46286;48.098;11.590;2023-04-03T02:10:54;15.25;;;8.27;;
60432;SDS011;46286;48.098;11.590;2023-04-03T02:13:20;14.63;;;8.65;;
60432;SDS011;46286;48.098;11.590;2023-04-03T02:15:45;17.80;;;8.65;;
60432;SDS011;46286;48.098;11.590;2023-04-03T02:18:12;17.65;;;9.85;;
60432;SDS011;46286;48.098;11.590;2023-04-03T02:20:37;18.17;;;9.68;;
60432;SDS011;46286;48.098;11.590;2023-04-03T02:23:04;16.33;;;8.95;;
60432;SDS011;46286;48.098;11.590;2023-04-03T02:25:31;18.05;;;8.85;;
60432;SDS011;46286;48.098;11.590;2023-04-03T02:27:57;15.30;;;9.35;;
60432;SDS011;46286;48.098;11.590;2023-04-03T02:30:22;17.75;;;10.30;;
60432;SDS011;46286;48.098;11.590;2023-04-03T02:32:48;18.67;;;9.60;;
60432;SDS011;46286;48.098;11.590;2023-04-03T02:35:14;16.27;;;8.82;;
60432;SDS011;46286;48.098;11.590;2023-04-03T02:37:40;15.68;;;7.93;;
60432;SDS011;46286;48.098;11.590;2023-04-03T02:40:05;14.85;;;7.13;;
60432;SDS011;46286;48.098;11.590;2023-04-03T02:42:32;16.10;;;8.88;;
60432;SDS011;46286;48.098;11.590;2023-04-03T02:44:57;14.45;;;8.43;;
60432;SDS011;46286;48.098;11.590;2023-04-03T02:47:26;14.30;;;8.25;;
60432;SDS011;46286;48.098;11.590;2023-04-03T02:49:52;15.38;;;8.40;;
60432;SDS011;46286;48.098;11.590;2023-04-03T02:52:18;14.32;;;7.78;;
60432;SDS011;46286;48.098;11.590;2023-04-03T02:54:44;13.23;;;6.90;;
60432;SDS011;46286;48.098;11.590;2023-04-03T02:57:10;13.32;;;7.43;;
60432;SDS011;46286;48.098;11.590;2023-04-03T02:59:36;13.57;;;7.80;;
60432;SDS011;46286;48.098;11.590;2023-04-03T03:02:06;11.75;;;6.80;;
60432;SDS011;46286;48.098;11.590;2023-04-03T03:04:32;12.35;;;6.82;;
60432;SDS011;46286;48.098;11.590;2023-04-03T03:06:58;12.90;;;6.70;;
60432;SDS011;46286;48.098;11.590;2023-04-03T03:09:24;13.70;;;6.85;;
60432;SDS011;46286;48.098;11.590;2023-04-03T03:11:51;12.18;;;6.65;;
60432;SDS011;46286;48.098;11.590;2023-04-03T03:14:16;14.13;;;7.18;;
60432;SDS011;46286;48.098;11.590;2023-04-03T03:16:42;11.95;;;6.43;;
60432;SDS011;46286;48.098;11.590;2023-04-03T03:19:07;9.75;;;6.40;;
60432;SDS011;46286;48.098;11.590;2023-04-03T03:21:33;13.32;;;7.13;;
60432;SDS011;46286;48.098;11.590;2023-04-03T03:23:58;12.50;;;6.75;;
60432;SDS011;46286;48.098;11.590;2023-04-03T03:26:24;10.68;;;6.43;;
60432;SDS011;46286;48.098;11.590;2023-04-03T03:28:50;10.15;;;6.45;;
60432;SDS011;46286;48.098;11.590;2023-04-03T03:31:15;11.55;;;6.32;;
60432;SDS011;46286;48.098;11.590;2023-04-03T03:33:41;10.15;;;6.03;;
60432;SDS011;46286;48.098;11.590;2023-04-03T03:36:07;11.80;;;6.43;;
60432;SDS011;46286;48.098;11.590;2023-04-03T03:38:32;11.93;;;6.55;;
60432;SDS011;46286;48.098;11.590;2023-04-03T03:40:58;9.23;;;5.90;;
60432;SDS011;46286;48.098;11.590;2023-04-03T03:43:23;12.18;;;6.15;;
60432;SDS011;46286;48.098;11.590;2023-04-03T03:45:50;9.40;;;6.07;;
60432;SDS011;46286;48.098;11.590;2023-04-03T03:48:17;9.20;;;5.32;;
60432;SDS011;46286;48.098;11.590;2023-04-03T03:50:43;8.82;;;5.72;;
60432;SDS011;46286;48.098;11.590;2023-04-03T03:53:08;10.73;;;5.57;;
60432;SDS011;46286;48.098;11.590;2023-04-03T03:55:34;9.60;;;5.15;;
60432;SDS011;46286;48.098;11.590;2023-04-03T03:57:59;11.93;;;5.80;;
60432;SDS011;46286;48.098;11.590;2023-04-03T04:00:26;9.88;;;5.30;;
60432;SDS011;46286;48.098;11.590;2023-04-03T04:02:52;12.10;;;5.97;;
60432;SDS011;46286;48.098;11.590;2023-04-03T04:05:18;9.07;;;6.03;;
60432;SDS011;46286;48.098;11.590;2023-04-03T04:07:43;10.57;;;5.50;;
60432;SDS011;46286;48.098;11.590;2023-04-03T04:10:09;9.68;;;4.95;;
60432;SDS011;46286;48.098;11.590;2023-04-03T04:12:35;9.48;;;5.55;;
60432;SDS011;46286;48.098;11.590;2023-04-03T04:15:01;9.52;;;5.13;;
60432;SDS011;46286;48.098;11.590;2023-04-03T04:17:27;15.07;;;5.88;;
60432;SDS011;46286;48.098;11.590;2023-04-03T04:19:53;9.70;;;5.15;;
60432;SDS011;46286;48.098;11.590;2023-04-03T04:22:18;12.35;;;5.15;;
60432;SDS011;46286;48.098;11.590;2023-04-03T04:24:44;12.27;;;5.75;;
60432;SDS011;46286;48.098;11.590;2023-04-03T04:27:09;9.93;;;5.60;;
60432;SDS011;46286;48.098;11.590;2023-04-03T04:29:35;9.02;;;5.60;;
60432;SDS011;46286;48.098;11.590;2023-04-03T04:32:02;15.00;;;5.97;;
60432;SDS011;46286;48.098;11.590;2023-04-03T04:34:29;8.77;;;5.53;;
60432;SDS011;46286;48.098;11.590;2023-04-03T04:36:55;8.25;;;5.50;;
60432;SDS011;46286;48.098;11.590;2023-04-03T04:39:20;11.52;;;6.20;;
60432;SDS011;46286;48.098;11.590;2023-04-03T04:41:46;9.48;;;5.22;;
60432;SDS011;46286;48.098;11.590;2023-04-03T04:44:12;12.90;;;5.72;;
60432;SDS011;46286;48.098;11.590;2023-04-03T04:46:37;9.07;;;5.40;;
60432;SDS011;46286;48.098;11.590;2023-04-03T04:49:03;11.68;;;5.50;;
60432;SDS011;46286;48.098;11.590;2023-04-03T04:51:28;9.27;;;5.18;;
60432;SDS011;46286;48.098;11.590;2023-04-03T04:53:54;10.35;;;5.32;;
60432;SDS011;46286;48.098;11.590;2023-04-03T04:56:19;11.90;;;5.53;;
60432;SDS011;46286;48.098;11.590;2023-04-03T04:58:46;10.70;;;5.65;;
60432;SDS011;46286;48.098;11.590;2023-04-03T05:01:11;10.10;;;5.18;;
60432;SDS011;46286;48.098;11.590;2023-04-03T05:03:37;10.85;;;5.40;;
60432;SDS011;46286;48.098;11.590;2023-04-03T05:06:02;8.73;;;5.72;;
60432;SDS011;46286;48.098;11.590;2023-04-03T05:08:28;9.82;;;5.57;;
60432;SDS011;46286;48.098;11.590;2023-04-03T05:10:54;10.57;;;5.50;;
60432;SDS011;46286;48.098;11.590;2023-04-03T05:13:20;13.27;;;6.45;;
60432;SDS011;46286;48.098;11.590;2023-04-03T05:15:46;12.23;;;5.72;;
60432;SDS011;46286;48.098;11.590;2023-04-03T05:18:12;8.95;;;5.47;;
60432;SDS011;46286;48.098;11.590;2023-04-03T05:20:38;8.55;;;5.20;;
60432;SDS011;46286;48.098;11.590;2023-04-03T05:23:04;9.13;;;5.20;;
60432;SDS011;46286;48.098;11.590;2023-04-03T05:25:29;9.18;;;5.43;;
60432;SDS011;46286;48.098;11.590;2023-04-03T05:27:55;6.93;;;4.68;;
60432;SDS011;46286;48.098;11.590;2023-04-03T05:30:21;8.55;;;5.10;;
60432;SDS011;46286;48.098;11.590;2023-04-03T05:32:47;8.73;;;4.60;;
60432;SDS011;46286;48.098;11.590;2023-04-03T05:35:13;7.05;;;4.72;;
60432;SDS011;46286;48.098;11.590;2023-04-03T05:37:38;9.70;;;4.72;;
60432;SDS011;46286;48.098;11.590;2023-04-03T05:40:04;9.15;;;5.25;;
60432;SDS011;46286;48.098;11.590;2023-04-03T05:42:31;10.80;;;4.68;;
60432;SDS011;46286;48.098;11.590;2023-04-03T05:44:56;9.07;;;4.70;;
60432;SDS011;46286;48.098;11.590;2023-04-03T05:47:22;8.82;;;4.85;;
60432;SDS011;46286;48.098;11.590;2023-04-03T05:49:48;8.73;;;4.60;;
60432;SDS011;46286;48.098;11.590;2023-04-03T05:52:35;10.43;;;4.95;;
60432;SDS011;46286;48.098;11.590;2023-04-03T05:55:04;9.35;;;4.72;;
60432;SDS011;46286;48.098;11.590;2023-04-03T05:57:30;9.10;;;5.07;;
60432;SDS011;46286;48.098;11.590;2023-04-03T05:59:55;9.40;;;4.90;;
60432;SDS011;46286;48.098;11.590;2023-04-03T06:02:22;9.02;;;4.70;;
60432;SDS011;46286;48.098;11.590;2023-04-03T06:04:50;11.73;;;4.93;;
60432;SDS011;46286;48.098;11.590;2023-04-03T06:07:17;9.25;;;4.95;;
60432;SDS011;46286;48.098;11.590;2023-04-03T06:09:46;9.40;;;4.30;;
60432;SDS011;46286;48.098;11.590;2023-04-03T06:12:12;13.60;;;5.22;;
60432;SDS011;46286;48.098;11.590;2023-04-03T06:14:38;9.75;;;5.07;;
60432;SDS011;46286;48.098;11.590;2023-04-03T06:17:04;9.45;;;4.90;;
60432;SDS011;46286;48.098;11.590;2023-04-03T06:19:31;11.65;;;5.45;;
60432;SDS011;46286;48.098;11.590;2023-04-03T06:21:56;10.32;;;5.50;;
60432;SDS011;46286;48.098;11.590;2023-04-03T06:24:22;9.00;;;4.90;;
60432;SDS011;46286;48.098;11.590;2023-04-03T06:26:49;11.20;;;5.22;;
60432;SDS011;46286;48.098;11.590;2023-04-03T06:29:16;8.23;;;4.82;;
60432;SDS011;46286;48.098;11.590;2023-04-03T06:31:43;10.90;;;4.75;;
60432;SDS011;46286;48.098;11.590;2023-04-03T06:34:08;10.05;;;5.25;;
60432;SDS011;46286;48.098;11.590;2023-04-03T06:36:34;8.95;;;5.03;;
60432;SDS011;46286;48.098;11.590;2023-04-03T06:39:00;10.65;;;5.22;;
60432;SDS011;46286;48.098;11.590;2023-04-03T06:41:26;9.07;;;5.30;;
60432;SDS011;46286;48.098;11.590;2023-04-03T06:43:52;8.60;;;5.15;;
60432;SDS011;46286;48.098;11.590;2023-04-03T06:46:19;7.68;;;4.68;;
60432;SDS011;46286;48.098;11.590;2023-04-03T06:48:46;9.25;;;4.88;;
60432;SDS011;46286;48.098;11.590;2023-04-03T06:51:17;7.88;;;4.95;;
60432;SDS011;46286;48.098;11.590;2023-04-03T06:53:46;9.38;;;5.60;;
60432;SDS011;46286;48.098;11.590;2023-04-03T06:56:13;9.80;;;4.65;;
60432;SDS011;46286;48.098;11.590;2023-04-03T06:58:39;8.13;;;4.90;;
60432;SDS011;46286;48.098;11.590;2023-04-03T07:01:05;11.80;;;5.15;;
60432;SDS011;46286;48.098;11.590;2023-04-03T07:03:31;7.70;;;4.68;;
60432;SDS011;46286;48.098;11.590;2023-04-03T07:05:57;8.63;;;4.55;;
60432;SDS011;46286;48.098;11.590;2023-04-03T07:08:22;6.95;;;4.40;;
60432;SDS011;46286;48.098;11.590;2023-04-03T07:10:49;9.23;;;5.00;;
60432;SDS011;46286;48.098;11.590;2023-04-03T07:13:15;9.70;;;4.93;;
60432;SDS011;46286;48.098;11.590;2023-04-03T07:15:41;9.35;;;4.57;;
60432;SDS011;46286;48.098;11.590;2023-04-03T07:18:07;8.57;;;4.47;;
60432;SDS011;46286;48.098;11.590;2023-04-03T07:20:32;7.50;;;4.53;;
60432;SDS011;46286;48.098;11.590;2023-04-03T07:22:59;11.93;;;4.88;;
60432;SDS011;46286;48.098;11.590;2023-04-03T07:25:27;9.55;;;4.90;;
60432;SDS011;46286;48.098;11.590;2023-04-03T07:27:53;9.77;;;5.00;;
60432;SDS011;46286;48.098;11.590;2023-04-03T07:30:20;9.18;;;4.88;;
60432;SDS011;46286;48.098;11.590;2023-04-03T07:32:45;8.18;;;4.63;;
60432;SDS011;46286;48.098;11.590;2023-04-03T07:35:11;7.47;;;5.00;;
60432;SDS011;46286;48.098;11.590;2023-04-03T07:37:37;9.48;;;5.10;;
60432;SDS011;46286;48.098;11.590;2023-04-03T07:40:02;9.02;;;4.93;;
60432;SDS011;46286;48.098;11.590;2023-04-03T07:42:29;9.50;;;4.60;;
60432;SDS011;46286;48.098;11.590;2023-04-03T07:44:54;7.53;;;4.50;;
60432;SDS011;46286;48.098;11.590;2023-04-03T07:47:20;8.77;;;4.63;;
60432;SDS011;46286;48.098;11.590;2023-04-03T07:49:46;7.30;;;4.50;;
60432;SDS011;46286;48.098;11.590;2023-04-03T07:52:12;7.57;;;4.50;;
60432;SDS011;46286;48.098;11.590;2023-04-03T07:54:39;11.20;;;5.95;;
60432;SDS011;46286;48.098;11.590;2023-04-03T07:57:05;9.27;;;4.70;;
60432;SDS011;46286;48.098;11.590;2023-04-03T07:59:32;7.82;;;4.68;;
60432;SDS011;46286;48.098;11.590;2023-04-03T08:01:57;8.48;;;5.07;;
60432;SDS011;46286;48.098;11.590;2023-04-03T08:04:23;9.85;;;5.43;;
60432;SDS011;46286;48.098;11.590;2023-04-03T08:06:49;8.85;;;4.97;;
60432;SDS011;46286;48.098;11.590;2023-04-03T08:09:15;9.27;;;5.20;;
60432;SDS011;46286;48.098;11.590;2023-04-03T08:11:41;11.32;;;5.40;;
60432;SDS011;46286;48.098;11.590;2023-04-03T08:14:06;8.38;;;5.18;;
60432;SDS011;46286;48.098;11.590;2023-04-03T08:16:32;10.98;;;5.80;;
60432;SDS011;46286;48.098;11.590;2023-04-03T08:18:58;9.75;;;5.68;;
60432;SDS011;46286;48.098;11.590;2023-04-03T08:21:24;10.93;;;5.85;;
60432;SDS011;46286;48.098;11.590;2023-04-03T08:23:52;10.40;;;6.20;;
60432;SDS011;46286;48.098;11.590;2023-04-03T08:26:19;9.90;;;5.68;;
60432;SDS011;46286;48.098;11.590;2023-04-03T08:28:46;11.60;;;6.30;;
60432;SDS011;46286;48.098;11.590;2023-04-03T08:31:14;10.55;;;5.70;;
60432;SDS011;46286;48.098;11.590;2023-04-03T08:33:41;9.55;;;5.78;;
60432;SDS011;46286;48.098;11.590;2023-04-03T08:36:07;9.00;;;5.60;;
60432;SDS011;46286;48.098;11.590;2023-04-03T08:38:41;13.73;;;6.03;;
60432;SDS011;46286;48.098;11.590;2023-04-03T08:41:11;8.13;;;5.32;;
60432;SDS011;46286;48.098;11.590;2023-04-03T08:43:56;13.02;;;5.93;;
60432;SDS011;46286;48.098;11.590;2023-04-03T08:49:39;13.57;;;5.07;;
60432;SDS011;46286;48.098;11.590;2023-04-03T08:52:13;9.73;;;5.25;;
60432;SDS011;46286;48.098;11.590;2023-04-03T08:54:54;11.20;;;5.47;;
60432;SDS011;46286;48.098;11.590;2023-04-03T08:57:29;8.50;;;4.53;;
60432;SDS011;46286;48.098;11.590;2023-04-03T08:59:59;8.75;;;5.72;;
60432;SDS011;46286;48.098;11.590;2023-04-03T09:02:43;11.48;;;5.13;;
60432;SDS011;46286;48.098;11.590;2023-04-03T09:05:15;8.50;;;5.13;;
60432;SDS011;46286;48.098;11.590;2023-04-03T09:07:46;8.90;;;5.47;;
60432;SDS011;46286;48.098;11.590;2023-04-03T09:10:29;7.53;;;5.18;;
60432;SDS011;46286;48.098;11.590;2023-04-03T09:13:03;7.05;;;4.47;;
60432;SDS011;46286;48.098;11.590;2023-04-03T09:15:37;9.13;;;5.10;;
60432;SDS011;46286;48.098;11.590;2023-04-03T09:18:04;8.95;;;5.38;;
60432;SDS011;46286;48.098;11.590;2023-04-03T09:23:26;7.50;;;4.80;;
60432;SDS011;46286;48.098;11.590;2023-04-03T09:26:19;12.85;;;4.90;;
60432;SDS011;46286;48.098;11.590;2023-04-03T09:28:46;7.57;;;4.47;;
60432;SDS011;46286;48.098;11.590;2023-04-03T09:31:19;7.13;;;4.60;;
60432;SDS011;46286;48.098;11.590;2023-04-03T09:33:53;8.35;;;4.95;;
60432;SDS011;46286;48.098;11.590;2023-04-03T09:39:20;7.00;;;4.53;;
60432;SDS011;46286;48.098;11.590;2023-04-03T09:42:01;9.45;;;4.25;;
60432;SDS011;46286;48.098;11.590;2023-04-03T09:44:38;6.70;;;4.45;;
60432;SDS011;46286;48.098;11.590;2023-04-03T09:49:49;7.15;;;4.28;;
60432;SDS011;46286;48.098;11.590;2023-04-03T09:52:24;8.23;;;4.50;;
60432;SDS011;46286;48.098;11.590;2023-04-03T09:54:51;6.95;;;4.68;;
60432;SDS011;46286;48.098;11.590;2023-04-03T09:57:17;6.78;;;4.28;;
60432;SDS011;46286;48.098;11.590;2023-04-03T09:59:46;9.52;;;4.75;;
60432;SDS011;46286;48.098;11.590;2023-04-03T10:04:40;10.57;;;5.00;;
60432;SDS011;46286;48.098;11.590;2023-04-03T10:12:40;7.00;;;3.97;;
60432;SDS011;46286;48.098;11.590;2023-04-03T10:15:15;8.15;;;4.25;;
60432;SDS011;46286;48.098;11.590;2023-04-03T10:18:03;7.38;;;3.90;;
60432;SDS011;46286;48.098;11.590;2023-04-03T10:26:08;10.52;;;4.40;;
60432;SDS011;46286;48.098;11.590;2023-04-03T10:34:21;8.23;;;5.07;;
60432;SDS011;46286;48.098;11.590;2023-04-03T10:42:46;7.30;;;4.78;;
60432;SDS011;46286;48.098;11.590;2023-04-03T10:48:30;7.90;;;4.25;;
60432;SDS011;46286;48.098;11.590;2023-04-03T10:53:32;7.65;;;4.63;;
60432;SDS011;46286;48.098;11.590;2023-04-03T11:01:51;6.93;;;4.00;;
60432;SDS011;46286;48.098;11.590;2023-04-03T11:04:21;8.80;;;4.47;;
60432;SDS011;46286;48.098;11.590;2023-04-03T11:06:53;9.07;;;4.10;;
60432;SDS011;46286;48.098;11.590;2023-04-03T11:09:28;7.68;;;4.15;;
60432;SDS011;46286;48.098;11.590;2023-04-03T11:12:19;10.15;;;4.63;;
60432;SDS011;46286;48.098;11.590;2023-04-03T11:14:55;7.55;;;4.18;;
60432;SDS011;46286;48.098;11.590;2023-04-03T11:17:31;6.80;;;4.05;;
60432;SDS011;46286;48.098;11.590;2023-04-03T11:25:42;5.72;;;4.10;;
60432;SDS011;46286;48.098;11.590;2023-04-03T11:28:12;7.93;;;3.70;;
60432;SDS011;46286;48.098;11.590;2023-04-03T11:36:41;5.53;;;3.05;;
60432;SDS011;46286;48.098;11.590;2023-04-03T11:39:17;5.80;;;3.05;;
60432;SDS011;46286;48.098;11.590;2023-04-03T11:41:45;5.82;;;3.00;;
60432;SDS011;46286;48.098;11.590;2023-04-03T11:46:59;5.65;;;2.78;;
60432;SDS011;46286;48.098;11.590;2023-04-03T12:21:18;5.13;;;2.60;;
60432;SDS011;46286;48.098;11.590;2023-04-03T12:38:01;5.22;;;2.50;;
60432;SDS011;46286;48.098;11.590;2023-04-03T12:46:16;4.38;;;2.42;;
60432;SDS011;46286;48.098;11.590;2023-04-03T12:51:12;8.05;;;2.63;;
60432;SDS011;46286;48.098;11.590;2023-04-03T12:53:40;4.78;;;2.45;;
60432;SDS011;46286;48.098;11.590;2023-04-03T12:56:23;6.40;;;2.60;;
60432;SDS011;46286;48.098;11.590;2023-04-03T12:59:35;4.90;;;2.30;;
60432;SDS011;46286;48.098;11.590;2023-04-03T13:01:44;3.60;;;2.15;;
60432;SDS011;46286;48.098;11.590;2023-04-03T13:04:20;6.28;;;2.50;;
60432;SDS011;46286;48.098;11.590;2023-04-03T13:06:46;4.93;;;2.55;;
60432;SDS011;46286;48.098;11.590;2023-04-03T13:09:22;4.13;;;2.15;;
60432;SDS011;46286;48.098;11.590;2023-04-03T13:11:56;4.10;;;2.45;;
60432;SDS011;46286;48.098;11.590;2023-04-03T13:14:26;7.00;;;2.72;;
60432;SDS011;46286;48.098;11.590;2023-04-03T13:19:22;7.07;;;2.50;;
60432;SDS011;46286;48.098;11.590;2023-04-03T13:21:49;5.10;;;2.53;;
60432;SDS011;46286;48.098;11.590;2023-04-03T13:26:50;5.13;;;2.17;;
60432;SDS011;46286;48.098;11.590;2023-04-03T13:29:19;4.78;;;2.45;;
60432;SDS011;46286;48.098;11.590;2023-04-03T13:31:51;8.27;;;2.80;;
60432;SDS011;46286;48.098;11.590;2023-04-03T13:34:20;4.22;;;2.40;;
60432;SDS011;46286;48.098;11.590;2023-04-03T13:41:47;4.75;;;2.30;;
60432;SDS011;46286;48.098;11.590;2023-04-03T13:46:47;4.85;;;2.03;;
60432;SDS011;46286;48.098;11.590;2023-04-03T13:49:28;4.43;;;2.50;;
60432;SDS011;46286;48.098;11.590;2023-04-03T13:51:57;5.65;;;2.40;;
60432;SDS011;46286;48.098;11.590;2023-04-03T13:54:28;5.82;;;2.40;;
60432;SDS011;46286;48.098;11.590;2023-04-03T13:56:57;7.20;;;2.45;;
60432;SDS011;46286;48.098;11.590;2023-04-03T13:59:25;5.30;;;2.33;;
60432;SDS011;46286;48.098;11.590;2023-04-03T14:07:12;4.32;;;2.25;;
60432;SDS011;46286;48.098;11.590;2023-04-03T14:09:40;4.85;;;2.60;;
60432;SDS011;46286;48.098;11.590;2023-04-03T14:12:07;5.25;;;2.42;;
60432;SDS011;46286;48.098;11.590;2023-04-03T14:14:37;5.72;;;2.47;;
60432;SDS011;46286;48.098;11.590;2023-04-03T14:17:15;6.97;;;2.58;;
60432;SDS011;46286;48.098;11.590;2023-04-03T14:19:43;4.50;;;2.28;;
60432;SDS011;46286;48.098;11.590;2023-04-03T14:22:20;3.80;;;2.10;;
60432;SDS011;46286;48.098;11.590;2023-04-03T14:25:11;4.80;;;2.30;;
60432;SDS011;46286;48.098;11.590;2023-04-03T14:27:41;6.70;;;2.40;;
60432;SDS011;46286;48.098;11.590;2023-04-03T14:30:12;5.10;;;2.40;;
60432;SDS011;46286;48.098;11.590;2023-04-03T14:32:40;4.93;;;2.25;;
60432;SDS011;46286;48.098;11.590;2023-04-03T14:35:08;3.85;;;2.00;;
60432;SDS011;46286;48.098;11.590;2023-04-03T14:37:33;5.32;;;2.00;;
60432;SDS011;46286;48.098;11.590;2023-04-03T14:40:01;5.07;;;2.20;;
60432;SDS011;46286;48.098;11.590;2023-04-03T14:42:30;7.22;;;2.38;;
60432;SDS011;46286;48.098;11.590;2023-04-03T14:44:58;5.25;;;2.17;;
60432;SDS011;46286;48.098;11.590;2023-04-03T14:47:26;4.55;;;2.30;;
60432;SDS011;46286;48.098;11.590;2023-04-03T14:49:54;4.53;;;2.17;;
60432;SDS011;46286;48.098;11.590;2023-04-03T14:52:24;6.57;;;2.72;;
60432;SDS011;46286;48.098;11.590;2023-04-03T14:54:51;7.93;;;2.40;;
60432;SDS011;46286;48.098;11.590;2023-04-03T14:57:18;5.03;;;2.28;;
60432;SDS011;46286;48.098;11.590;2023-04-03T14:59:45;3.92;;;2.13;;
60432;SDS011;46286;48.098;11.590;2023-04-03T15:02:15;5.85;;;2.40;;
60432;SDS011;46286;48.098;11.590;2023-04-03T15:04:51;5.47;;;2.20;;
60432;SDS011;46286;48.098;11.590;2023-04-03T15:07:17;5.30;;;2.40;;
60432;SDS011;46286;48.098;11.590;2023-04-03T15:09:43;5.53;;;2.30;;
60432;SDS011;46286;48.098;11.590;2023-04-03T15:12:09;4.85;;;2.20;;
60432;SDS011;46286;48.098;11.590;2023-04-03T15:14:35;6.63;;;2.42;;
60432;SDS011;46286;48.098;11.590;2023-04-03T15:17:01;4.13;;;2.20;;
60432;SDS011;46286;48.098;11.590;2023-04-03T15:19:28;6.70;;;2.20;;
60432;SDS011;46286;48.098;11.590;2023-04-03T15:21:57;5.18;;;2.30;;
60432;SDS011;46286;48.098;11.590;2023-04-03T15:24:25;4.78;;;2.25;;
60432;SDS011;46286;48.098;11.590;2023-04-03T15:26:51;4.18;;;2.20;;
60432;SDS011;46286;48.098;11.590;2023-04-03T15:29:16;3.90;;;2.22;;
60432;SDS011;46286;48.098;11.590;2023-04-03T15:31:42;4.53;;;2.15;;
60432;SDS011;46286;48.098;11.590;2023-04-03T15:34:07;6.00;;;2.35;;
60432;SDS011;46286;48.098;11.590;2023-04-03T15:36:33;5.15;;;2.28;;
60432;SDS011;46286;48.098;11.590;2023-04-03T15:38:58;4.68;;;2.47;;
60432;SDS011;46286;48.098;11.590;2023-04-03T15:41:24;6.78;;;2.38;;
60432;SDS011;46286;48.098;11.590;2023-04-03T15:43:50;8.77;;;2.42;;
60432;SDS011;46286;48.098;11.590;2023-04-03T15:46:15;4.55;;;2.30;;
60432;SDS011;46286;48.098;11.590;2023-04-03T15:48:41;4.60;;;2.33;;
60432;SDS011;46286;48.098;11.590;2023-04-03T15:51:07;4.32;;;2.33;;
60432;SDS011;46286;48.098;11.590;2023-04-03T15:53:32;4.65;;;2.38;;
60432;SDS011;46286;48.098;11.590;2023-04-03T15:55:58;5.47;;;2.20;;
60432;SDS011;46286;48.098;11.590;2023-04-03T15:58:23;7.68;;;2.53;;
60432;SDS011;46286;48.098;11.590;2023-04-03T16:00:53;7.07;;;2.38;;
60432;SDS011;46286;48.098;11.590;2023-04-03T16:03:19;4.10;;;2.28;;
60432;SDS011;46286;48.098;11.590;2023-04-03T16:05:46;5.15;;;2.20;;
60432;SDS011;46286;48.098;11.590;2023-04-03T16:08:13;6.75;;;2.17;;
60432;SDS011;46286;48.098;11.590;2023-04-03T16:10:39;5.97;;;2.28;;
60432;SDS011;46286;48.098;11.590;2023-04-03T16:13:05;5.38;;;2.50;;
60432;SDS011;46286;48.098;11.590;2023-04-03T16:15:31;5.03;;;2.17;;
60432;SDS011;46286;48.098;11.590;2023-04-03T16:17:58;6.15;;;2.45;;
60432;SDS011;46286;48.098;11.590;2023-04-03T16:20:24;6.07;;;2.20;;
60432;SDS011;46286;48.098;11.590;2023-04-03T16:22:51;6.47;;;2.45;;
60432;SDS011;46286;48.098;11.590;2023-04-03T16:25:17;5.10;;;2.45;;
60432;SDS011;46286;48.098;11.590;2023-04-03T16:27:43;5.07;;;2.10;;
60432;SDS011;46286;48.098;11.590;2023-04-03T16:30:09;7.70;;;2.78;;
60432;SDS011;46286;48.098;11.590;2023-04-03T16:32:36;7.93;;;2.53;;
60432;SDS011;46286;48.098;11.590;2023-04-03T16:35:03;5.15;;;2.20;;
60432;SDS011;46286;48.098;11.590;2023-04-03T16:37:29;4.18;;;2.33;;
60432;SDS011;46286;48.098;11.590;2023-04-03T16:39:55;9.50;;;3.08;;
60432;SDS011;46286;48.098;11.590;2023-04-03T16:42:22;8.70;;;2.38;;
60432;SDS011;46286;48.098;11.590;2023-04-03T16:44:47;4.30;;;2.35;;
60432;SDS011;46286;48.098;11.590;2023-04-03T16:47:13;6.93;;;2.50;;